createdAt,value
2023-01-03T00:01:47.395Z,3.22
2023-01-03T00:04:16.943Z,3.25
2023-01-03T00:06:47.785Z,3.37
2023-01-03T00:09:18.554Z,3.50
2023-01-03T00:12:07.976Z,3.55
2023-01-03T00:14:39.275Z,3.55
2023-01-03T00:17:09.844Z,3.52
2023-01-03T00:19:43.667Z,3.35
2023-01-03T00:22:13.804Z,3.16
2023-01-03T00:24:46.704Z,3.10
2023-01-03T00:27:15.917Z,3.14
2023-01-03T00:29:44.644Z,3.17
2023-01-03T00:32:13.141Z,3.15
2023-01-03T00:34:43.985Z,3.15
2023-01-03T00:37:13.572Z,3.14
2023-01-03T00:39:41.691Z,3.14
2023-01-03T00:42:09.697Z,3.19
2023-01-03T00:44:37.800Z,3.28
2023-01-03T00:47:05.958Z,3.37
2023-01-03T00:49:34.148Z,3.38
2023-01-03T00:52:02.149Z,3.40
2023-01-03T00:54:30.320Z,3.43
2023-01-03T00:56:58.478Z,3.48
2023-01-03T00:59:26.990Z,3.53
2023-01-03T01:01:56.854Z,3.57
2023-01-03T01:04:30.828Z,3.58
2023-01-03T01:07:01.712Z,3.51
2023-01-03T01:09:34.271Z,3.31
2023-01-03T01:12:03.723Z,3.20
2023-01-03T01:14:33.645Z,3.11
2023-01-03T01:17:05.432Z,3.02
2023-01-03T01:19:36.426Z,2.97
2023-01-03T01:22:05.145Z,2.84
2023-01-03T01:24:34.106Z,2.79
2023-01-03T01:27:02.509Z,2.87
2023-01-03T01:29:30.580Z,2.98
2023-01-03T01:31:58.817Z,3.05
2023-01-03T01:34:27.008Z,3.12
2023-01-03T01:36:55.256Z,3.18
2023-01-03T01:39:26.609Z,3.25
2023-01-03T01:42:20.794Z,3.29
2023-01-03T01:44:54.446Z,3.27
2023-01-03T01:47:31.788Z,3.30
2023-01-03T01:50:05.711Z,3.33
2023-01-03T01:52:36.963Z,3.32
2023-01-03T01:55:07.487Z,3.32
2023-01-03T01:57:37.207Z,3.18
2023-01-03T02:00:07.937Z,3.10
2023-01-03T02:02:44.237Z,3.03
2023-01-03T02:05:13.530Z,2.95
2023-01-03T02:07:42.669Z,2.93
2023-01-03T02:10:10.795Z,2.99
2023-01-03T02:13:05.259Z,3.10
2023-01-03T02:15:33.348Z,3.16
2023-01-03T02:18:32.392Z,3.17
2023-01-03T02:21:42.647Z,3.18
2023-01-03T02:24:28.376Z,3.18
2023-01-03T02:27:30.707Z,3.11
2023-01-03T02:30:34.485Z,3.11
2023-01-03T02:33:24.149Z,3.11
2023-01-03T02:36:22.643Z,3.15
2023-01-03T02:39:00.481Z,3.20
2023-01-03T02:41:28.507Z,3.24
2023-01-03T02:44:02.307Z,3.29
2023-01-03T02:46:51.846Z,3.19
2023-01-03T02:49:33.077Z,3.01
2023-01-03T02:52:17.196Z,3.00
2023-01-03T02:55:14.775Z,3.04
2023-01-03T02:57:48.315Z,3.06
2023-01-03T03:00:20.271Z,2.98
2023-01-03T03:02:53.408Z,2.90
2023-01-03T03:06:11.142Z,2.91
2023-01-03T03:08:39.446Z,2.95
2023-01-03T03:11:26.444Z,3.02
2023-01-03T03:14:00.983Z,3.08
2023-01-03T03:16:49.806Z,3.12
2023-01-03T03:19:39.735Z,3.15
2023-01-03T03:22:53.118Z,3.21
2023-01-03T03:25:30.809Z,3.23
2023-01-03T03:28:21.234Z,3.24
2023-01-03T03:30:53.006Z,3.24
2023-01-03T03:33:22.305Z,3.24
2023-01-03T03:36:17.241Z,3.24
2023-01-03T03:38:45.992Z,3.26
2023-01-03T03:41:47.949Z,3.26
2023-01-03T03:45:03.324Z,3.27
2023-01-03T03:48:02.168Z,3.27
2023-01-03T03:50:41.414Z,3.27
2023-01-03T03:53:10.979Z,3.28
2023-01-03T03:55:46.241Z,3.28
2023-01-03T03:58:20.969Z,3.30
2023-01-03T04:00:50.647Z,3.30
2023-01-03T04:03:19.998Z,3.24
2023-01-03T04:05:58.337Z,3.20
2023-01-03T04:08:26.831Z,3.12
2023-01-03T04:11:06.019Z,2.92
2023-01-03T04:13:36.179Z,2.84
2023-01-03T04:16:05.619Z,2.80
2023-01-03T04:18:33.828Z,2.80
2023-01-03T04:21:02.190Z,2.85
2023-01-03T04:23:30.241Z,2.88
2023-01-03T04:25:58.318Z,2.91
2023-01-03T04:28:26.311Z,2.91
2023-01-03T04:30:54.298Z,2.91
2023-01-03T04:33:22.372Z,2.89
2023-01-03T04:35:50.409Z,2.86
2023-01-03T04:38:18.499Z,2.87
2023-01-03T04:40:46.916Z,2.94
2023-01-03T04:43:34.012Z,2.95
2023-01-03T04:46:02.018Z,2.96
2023-01-03T04:48:30.143Z,2.99
2023-01-03T04:50:59.826Z,2.92
2023-01-03T04:53:28.273Z,2.79
2023-01-03T04:55:57.163Z,2.72
2023-01-03T04:58:25.951Z,2.67
2023-01-03T05:01:01.024Z,2.63
2023-01-03T05:03:30.196Z,2.61
2023-01-03T05:06:02.797Z,2.61
2023-01-03T05:08:31.160Z,2.61
2023-01-03T05:10:59.286Z,2.70
2023-01-03T05:13:27.323Z,2.79
2023-01-03T05:15:55.318Z,2.82
2023-01-03T05:18:23.585Z,2.88
2023-01-03T05:21:10.006Z,2.92
2023-01-03T05:23:56.769Z,2.91
2023-01-03T05:26:24.860Z,2.87
2023-01-03T05:28:54.000Z,2.81
2023-01-03T05:31:22.199Z,2.72
2023-01-03T05:33:50.305Z,2.66
2023-01-03T05:36:18.289Z,2.59
2023-01-03T05:38:46.438Z,2.61
2023-01-03T05:41:14.528Z,2.66
2023-01-03T05:43:43.326Z,2.53
2023-01-03T05:46:11.375Z,2.46
2023-01-03T05:48:39.466Z,2.43
2023-01-03T05:51:07.416Z,2.44
2023-01-03T05:53:35.433Z,2.51
2023-01-03T05:56:06.882Z,2.58
2023-01-03T05:58:34.932Z,2.64
2023-01-03T06:01:09.456Z,2.69
2023-01-03T06:03:37.927Z,2.75
2023-01-03T06:06:07.442Z,2.82
2023-01-03T06:08:36.183Z,2.89
2023-01-03T06:11:08.636Z,2.97
2023-01-03T06:13:36.850Z,2.98
2023-01-03T06:16:29.372Z,2.93
2023-01-03T06:18:57.807Z,2.94
2023-01-03T06:21:25.994Z,2.92
2023-01-03T06:23:54.223Z,2.90
2023-01-03T06:26:24.049Z,2.91
2023-01-03T06:28:52.812Z,2.90
2023-01-03T06:31:20.986Z,2.91
2023-01-03T06:33:49.410Z,2.91
2023-01-03T06:36:19.678Z,2.92
2023-01-03T06:38:47.945Z,2.94
2023-01-03T06:41:16.364Z,2.93
2023-01-03T06:43:44.804Z,2.93
2023-01-03T06:46:33.142Z,2.97
2023-01-03T06:49:19.781Z,3.03
2023-01-03T06:52:08.066Z,3.09
2023-01-03T06:54:37.808Z,3.16
2023-01-03T06:57:06.267Z,3.19
2023-01-03T06:59:34.485Z,3.17
2023-01-03T07:02:02.628Z,3.15
2023-01-03T07:04:30.995Z,3.08
2023-01-03T07:06:59.125Z,3.03
2023-01-03T07:09:28.248Z,2.98
2023-01-03T07:11:56.357Z,2.97
2023-01-03T07:14:24.371Z,2.98
2023-01-03T07:16:52.402Z,2.98
2023-01-03T07:19:20.414Z,2.99
2023-01-03T07:21:48.486Z,2.88
2023-01-03T07:24:18.858Z,2.88
2023-01-03T07:26:47.069Z,2.89
2023-01-03T07:29:15.148Z,2.90
2023-01-03T07:31:43.287Z,2.86
2023-01-03T07:34:12.208Z,2.78
2023-01-03T07:36:40.522Z,2.81
2023-01-03T07:39:08.553Z,2.87
2023-01-03T07:41:55.224Z,2.92
2023-01-03T07:44:23.167Z,2.93
2023-01-03T07:46:51.545Z,2.92
2023-01-03T07:49:19.612Z,2.90
2023-01-03T07:51:47.672Z,2.86
2023-01-03T07:54:15.766Z,2.75
2023-01-03T07:56:43.800Z,2.68
2023-01-03T07:59:11.967Z,2.71
2023-01-03T08:01:40.073Z,2.77
2023-01-03T08:04:08.153Z,2.78
2023-01-03T08:06:36.255Z,2.74
2023-01-03T08:09:23.205Z,2.75
2023-01-03T08:12:09.811Z,2.78
2023-01-03T08:14:37.743Z,2.75
2023-01-03T08:17:05.856Z,2.74
2023-01-03T08:19:33.884Z,2.70
2023-01-03T08:22:01.903Z,2.59
2023-01-03T08:24:29.826Z,2.53
2023-01-03T08:26:57.934Z,2.52
2023-01-03T08:29:25.923Z,2.57
2023-01-03T08:31:56.206Z,2.65
2023-01-03T08:34:29.894Z,2.66
2023-01-03T08:37:02.242Z,2.64
2023-01-03T08:39:35.252Z,2.68
2023-01-03T08:42:05.520Z,2.78
2023-01-03T08:44:33.901Z,2.79
2023-01-03T08:47:03.525Z,2.83
2023-01-03T08:49:32.055Z,2.94
2023-01-03T08:52:00.134Z,3.06
2023-01-03T08:54:28.131Z,3.15
2023-01-03T08:56:56.311Z,3.26
2023-01-03T08:59:24.337Z,3.37
2023-01-03T09:01:58.432Z,3.40
2023-01-03T09:04:27.153Z,3.36
2023-01-03T09:06:55.146Z,3.27
2023-01-03T09:09:23.418Z,3.28
2023-01-03T09:11:51.486Z,3.34
2023-01-03T09:14:19.689Z,3.39
2023-01-03T09:16:49.445Z,3.46
2023-01-03T09:19:17.870Z,3.56
2023-01-03T09:21:46.081Z,3.55
2023-01-03T09:24:14.147Z,3.59
2023-01-03T09:26:42.266Z,3.59
2023-01-03T09:29:10.331Z,3.62
2023-01-03T09:31:40.159Z,3.59
2023-01-03T09:34:08.569Z,3.55
2023-01-03T09:36:38.887Z,3.56
2023-01-03T09:39:07.349Z,3.65
2023-01-03T09:41:36.001Z,3.78
2023-01-03T09:44:07.357Z,3.92
2023-01-03T09:46:35.635Z,3.99
2023-01-03T09:49:07.169Z,4.01
2023-01-03T09:51:56.936Z,4.12
2023-01-03T09:54:50.835Z,4.27
2023-01-03T09:57:52.563Z,4.39
2023-01-03T10:00:57.929Z,4.51
2023-01-03T10:03:52.343Z,4.65
2023-01-03T10:06:26.996Z,4.75
2023-01-03T10:09:36.327Z,4.81
2023-01-03T10:12:04.387Z,4.85
2023-01-03T10:14:59.692Z,4.81
2023-01-03T10:17:27.615Z,4.68
2023-01-03T10:20:14.457Z,4.58
2023-01-03T10:22:42.525Z,4.50
2023-01-03T10:25:14.287Z,4.48
2023-01-03T10:27:51.454Z,4.46
2023-01-03T10:30:27.763Z,4.39
2023-01-03T10:33:19.261Z,4.28
2023-01-03T10:35:47.224Z,4.19
2023-01-03T10:38:16.695Z,4.21
2023-01-03T10:40:47.964Z,4.31
2023-01-03T10:43:20.301Z,4.36
2023-01-03T10:46:16.317Z,4.39
2023-01-03T10:49:25.410Z,4.44
2023-01-03T10:51:43.482Z,4.54
2023-01-03T10:54:21.479Z,4.58
2023-01-03T10:56:50.484Z,4.62
2023-01-03T10:59:43.754Z,4.64
2023-01-03T11:02:13.119Z,4.63
2023-01-03T11:04:41.962Z,4.61
2023-01-03T11:07:12.184Z,4.61
2023-01-03T11:09:51.525Z,4.69
2023-01-03T11:12:36.228Z,4.74
2023-01-03T11:15:38.684Z,4.73
2023-01-03T11:18:18.785Z,4.70
2023-01-03T11:20:49.882Z,4.72
2023-01-03T11:23:43.765Z,4.80
2023-01-03T11:26:39.707Z,4.96
2023-01-03T11:29:35.830Z,5.12
2023-01-03T11:32:03.875Z,5.24
2023-01-03T11:35:23.432Z,5.31
2023-01-03T11:38:05.168Z,5.48
2023-01-03T11:40:59.512Z,5.68
2023-01-03T12:40:58.276Z,10.82
2023-01-03T12:43:47.071Z,10.44
2023-01-03T12:46:24.517Z,9.92
2023-01-03T12:49:04.890Z,9.50
2023-01-03T12:51:33.044Z,9.09
2023-01-03T12:54:14.311Z,8.70
2023-01-03T12:57:03.975Z,8.25
2023-01-03T12:59:53.852Z,7.84
2023-01-03T13:02:22.017Z,7.49
2023-01-03T13:04:51.561Z,7.18
2023-01-03T13:07:29.248Z,6.94
2023-01-03T13:10:26.528Z,6.74
2023-01-03T13:12:54.903Z,6.63
2023-01-03T13:15:44.417Z,6.56
2023-01-03T13:18:31.536Z,6.48
2023-01-03T13:21:00.129Z,6.40
2023-01-03T13:23:30.906Z,6.33
2023-01-03T13:26:10.332Z,6.21
2023-01-03T13:28:39.627Z,6.17
2023-01-03T13:31:23.197Z,6.14
2023-01-03T13:33:56.366Z,6.13
2023-01-03T13:36:25.195Z,6.11
2023-01-03T13:38:53.316Z,6.06
2023-01-03T13:41:41.714Z,6.06
2023-01-03T13:44:19.803Z,6.07
2023-01-03T13:46:48.397Z,6.10
2023-01-03T13:49:22.896Z,6.11
2023-01-03T13:51:52.588Z,6.12
2023-01-03T13:54:20.609Z,6.12
2023-01-03T13:56:48.672Z,6.15
2023-01-03T13:59:32.029Z,6.17
2023-01-03T14:02:06.448Z,6.18
2023-01-03T14:04:49.779Z,6.19
2023-01-03T14:07:39.707Z,6.21
2023-01-03T14:10:10.742Z,6.21
2023-01-03T14:12:47.728Z,6.21
2023-01-03T14:15:25.968Z,6.23
2023-01-03T14:17:57.360Z,6.25
2023-01-03T14:20:34.642Z,6.24
2023-01-03T14:23:23.777Z,6.19
2023-01-03T14:25:54.371Z,6.17
2023-01-03T14:28:33.961Z,6.19
2023-01-03T14:31:06.967Z,6.14
2023-01-03T14:33:49.583Z,6.10
2023-01-03T14:36:17.960Z,6.07
2023-01-03T14:38:51.560Z,6.06
2023-01-03T14:41:40.222Z,6.09
2023-01-03T14:44:11.400Z,6.12
2023-01-03T14:46:42.822Z,6.15
2023-01-03T14:49:21.837Z,6.21
2023-01-03T14:51:50.101Z,6.25
2023-01-03T14:54:19.096Z,6.27
2023-01-03T14:56:47.560Z,6.28
2023-01-03T14:59:17.421Z,6.32
2023-01-03T15:01:46.827Z,6.36
2023-01-03T15:04:16.622Z,6.40
2023-01-03T15:07:09.635Z,6.41
2023-01-03T15:09:39.545Z,6.42
2023-01-03T15:12:08.005Z,6.45
2023-01-03T15:14:39.407Z,6.47
2023-01-03T15:17:10.996Z,6.51
2023-01-03T15:19:41.464Z,6.53
2023-01-03T15:22:09.555Z,6.52
2023-01-03T15:24:43.677Z,6.50
2023-01-03T15:27:34.271Z,6.49
2023-01-03T15:30:15.494Z,6.51
2023-01-03T15:32:49.049Z,6.55
2023-01-03T15:35:29.602Z,6.59
2023-01-03T15:37:58.993Z,6.59
2023-01-03T15:40:30.036Z,6.60
2023-01-03T15:43:23.355Z,6.63
2023-01-03T15:45:52.323Z,6.65
2023-01-03T15:48:23.488Z,6.68
2023-01-03T15:50:53.531Z,6.68
2023-01-03T15:53:36.466Z,6.66
2023-01-03T15:56:14.710Z,6.68
2023-01-03T15:58:43.281Z,6.71
2023-01-03T16:01:12.221Z,6.70
2023-01-03T16:03:40.510Z,6.70
2023-01-03T16:06:08.919Z,6.70
2023-01-03T16:08:37.947Z,6.72
2023-01-03T16:11:18.437Z,6.72
2023-01-03T16:13:53.174Z,6.78
2023-01-03T16:16:26.915Z,6.80
2023-01-03T16:18:55.351Z,6.80
2023-01-03T16:21:27.142Z,6.81
2023-01-03T16:23:55.226Z,6.80
2023-01-03T16:26:23.226Z,6.80
2023-01-03T16:28:51.390Z,6.77
2023-01-03T16:31:28.576Z,6.73
2023-01-03T16:33:56.904Z,6.71
2023-01-03T16:36:39.766Z,6.69
2023-01-03T16:39:26.981Z,6.70
2023-01-03T16:42:14.112Z,6.72
2023-01-03T16:44:45.240Z,6.76
2023-01-03T16:47:20.677Z,6.81
2023-01-03T16:49:56.015Z,6.81
2023-01-03T16:52:31.880Z,6.87
2023-01-03T16:55:13.212Z,6.90
2023-01-03T16:57:41.187Z,6.90
2023-01-03T17:00:17.316Z,6.91
2023-01-03T17:02:45.929Z,6.92
2023-01-03T17:05:15.232Z,6.90
2023-01-03T17:07:45.015Z,6.88
2023-01-03T17:10:37.606Z,6.84
2023-01-03T17:13:12.590Z,6.81
2023-01-03T17:15:41.647Z,6.85
2023-01-03T17:18:18.837Z,6.89
2023-01-03T17:20:51.595Z,6.94
2023-01-03T17:23:20.020Z,6.96
2023-01-03T17:25:48.637Z,6.97
2023-01-03T17:28:16.578Z,6.98
2023-01-03T17:30:44.786Z,6.97
2023-01-03T17:33:17.333Z,6.98
2023-01-03T17:35:46.349Z,7.02
2023-01-03T17:38:31.089Z,7.06
2023-01-03T17:40:59.339Z,7.09
2023-01-03T17:43:27.780Z,7.11
2023-01-03T17:46:22.607Z,7.12
2023-01-03T17:49:10.060Z,7.14
2023-01-03T17:51:38.105Z,7.15
2023-01-03T17:54:06.289Z,7.14
2023-01-03T17:56:38.280Z,7.15
2023-01-03T17:59:06.625Z,7.17
2023-01-03T18:01:34.774Z,7.11
2023-01-03T18:04:02.967Z,7.11
2023-01-03T18:06:31.325Z,7.15
2023-01-03T18:09:04.005Z,7.18
2023-01-03T18:11:32.385Z,7.21
2023-01-03T18:14:00.619Z,7.26
2023-01-03T18:16:28.774Z,7.29
2023-01-03T18:18:57.003Z,7.31
2023-01-03T18:21:28.039Z,7.33
2023-01-03T18:24:20.500Z,7.36
2023-01-03T18:26:51.559Z,7.41
2023-01-03T18:29:19.801Z,7.47
2023-01-03T18:31:48.093Z,7.51
2023-01-03T18:34:16.132Z,7.56
2023-01-03T18:36:48.179Z,7.57
2023-01-03T18:39:25.081Z,7.61
2023-01-03T18:41:53.324Z,7.64
2023-01-03T18:44:25.031Z,7.64
2023-01-03T18:46:53.671Z,7.64
2023-01-03T18:49:21.710Z,7.63
2023-01-03T18:51:54.494Z,7.58
2023-01-03T18:54:22.542Z,7.56
2023-01-03T18:56:50.832Z,7.52
2023-01-03T18:59:24.814Z,7.53
2023-01-03T19:01:53.721Z,7.54
2023-01-03T19:04:22.051Z,7.56
2023-01-03T19:06:53.273Z,7.57
2023-01-03T19:09:23.429Z,7.58
2023-01-03T19:11:53.311Z,7.60
2023-01-03T19:14:21.776Z,7.63
2023-01-03T19:16:50.109Z,7.63
2023-01-03T19:19:18.136Z,7.64
2023-01-03T19:21:46.996Z,7.65
2023-01-03T19:24:24.037Z,7.66
2023-01-03T19:26:58.014Z,7.69
2023-01-03T19:29:32.026Z,7.71
2023-01-03T19:32:00.146Z,7.73
2023-01-03T19:34:29.100Z,7.72
2023-01-03T19:37:00.715Z,7.71
2023-01-03T19:39:35.186Z,7.72
2023-01-03T19:42:26.625Z,7.72
2023-01-03T19:44:55.333Z,7.70
2023-01-03T19:47:24.367Z,7.69
2023-01-03T19:49:52.629Z,7.69
2023-01-03T19:52:20.877Z,7.70
2023-01-03T19:54:48.944Z,7.69
2023-01-03T19:57:21.449Z,7.71
2023-01-03T20:00:00.517Z,7.75
2023-01-03T20:02:39.498Z,7.79
2023-01-03T20:05:16.593Z,7.83
2023-01-03T20:07:45.292Z,7.85
2023-01-03T20:10:15.680Z,7.84
2023-01-03T20:12:43.798Z,7.84
2023-01-03T20:15:24.489Z,7.86
2023-01-03T20:17:53.088Z,7.88
2023-01-03T20:20:22.705Z,7.87
2023-01-03T20:23:05.903Z,7.88
2023-01-03T20:25:35.694Z,7.89
2023-01-03T20:28:04.010Z,7.92
2023-01-03T20:30:33.067Z,7.97
2023-01-03T20:33:01.449Z,8.01
2023-01-03T20:38:27.495Z,8.07
2023-01-03T20:40:56.435Z,8.08
2023-01-03T20:43:24.572Z,8.08
2023-01-03T20:45:55.697Z,8.09
2023-01-03T20:48:26.206Z,8.08
2023-01-03T20:50:55.149Z,8.13
2023-01-03T20:53:27.137Z,8.16
2023-01-03T20:55:55.459Z,8.17
2023-01-03T20:58:27.770Z,8.16
2023-01-03T21:01:04.211Z,8.14
2023-01-03T21:03:36.960Z,8.13
2023-01-03T21:06:34.544Z,8.11
2023-01-03T21:09:02.624Z,8.09
2023-01-03T21:11:32.524Z,8.07
2023-01-03T21:14:01.223Z,8.05
2023-01-03T21:16:38.202Z,8.04
2023-01-03T21:19:20.763Z,8.01
2023-01-03T21:21:51.440Z,8.00
2023-01-03T21:24:22.085Z,8.00
2023-01-03T21:26:50.300Z,8.00
2023-01-03T21:29:18.516Z,8.01
2023-01-03T21:31:46.644Z,8.02
2023-01-03T21:34:18.767Z,8.02
2023-01-03T21:36:47.111Z,7.99
2023-01-03T21:39:15.507Z,7.98
2023-01-03T21:42:02.554Z,7.96
2023-01-03T21:44:30.662Z,7.85
2023-01-03T21:46:58.551Z,7.74
2023-01-03T21:49:26.585Z,7.62
2023-01-03T21:51:54.563Z,7.55
2023-01-03T21:54:22.638Z,7.49
2023-01-03T21:56:50.645Z,7.49
2023-01-03T21:59:18.742Z,7.50
2023-01-03T22:02:06.432Z,7.52
2023-01-03T22:04:35.007Z,7.54
2023-01-03T22:07:03.035Z,7.54
2023-01-03T22:09:50.519Z,7.59
2023-01-03T22:12:27.113Z,7.64
2023-01-03T22:14:55.561Z,7.70
2023-01-03T22:17:23.602Z,7.78
2023-01-03T22:19:51.625Z,7.85
2023-01-03T22:22:19.612Z,7.89
2023-01-03T22:24:47.604Z,7.91
2023-01-03T22:27:16.823Z,7.92
2023-01-03T22:29:44.883Z,7.93
2023-01-03T22:32:12.953Z,7.88
2023-01-03T22:34:40.954Z,7.81
2023-01-03T22:37:09.046Z,7.80
2023-01-03T22:39:37.107Z,7.84
2023-01-03T22:42:05.322Z,7.88
2023-01-03T22:44:33.520Z,7.93
2023-01-03T22:47:01.585Z,7.96
2023-01-03T22:49:29.717Z,8.00
2023-01-03T22:51:57.767Z,8.03
2023-01-03T22:54:25.848Z,8.04
2023-01-03T22:56:57.244Z,8.05
2023-01-03T22:59:25.301Z,8.10
2023-01-03T23:01:53.503Z,8.13
2023-01-03T23:04:23.299Z,8.16
2023-01-03T23:06:51.369Z,8.16
2023-01-03T23:09:19.961Z,8.21
2023-01-03T23:12:07.255Z,8.23
2023-01-03T23:14:35.327Z,8.27
2023-01-03T23:17:22.932Z,8.27
2023-01-03T23:19:50.901Z,8.25
2023-01-03T23:22:18.976Z,8.25
2023-01-03T23:24:47.169Z,8.26
2023-01-03T23:27:15.253Z,8.28
2023-01-03T23:29:43.297Z,8.31
2023-01-03T23:32:11.277Z,8.34
2023-01-03T23:34:39.364Z,8.34
2023-01-03T23:37:07.271Z,8.37
2023-01-03T23:39:35.600Z,8.39
2023-01-03T23:42:03.688Z,8.39
2023-01-03T23:44:32.900Z,8.36
2023-01-03T23:47:03.775Z,8.35
2023-01-03T23:49:34.494Z,8.31
2023-01-03T23:52:02.443Z,8.28
2023-01-03T23:54:30.483Z,8.26
2023-01-03T23:56:58.561Z,8.28
2023-01-03T23:59:26.663Z,8.29
